Terminal Aerodrome Forecast
Issued by NWS Green Bay, WI

Home | Current Version | Previous Version | Text Only | Print | Product List | Glossary Off
Versions: 1 2 3 4 5 6 7 8 9 10 11 12 13 14 15 16 17 18 19 20 21 22 23 24 25 26 27 28 29 30 31 32 33 34 35 36 37 38 39 40 41 42 43 44 45 46 47 48 49 50

000
FTUS43 KGRB 170520
TAFGRB
TAF
KGRB 170520Z 1706/1806 13010KT P6SM BKN022
      TEMPO 1706/1710 SCT022 BKN100
     FM171200 16008KT P6SM OVC015
     FM171400 17011G19KT P6SM OVC015
     FM171500 17013G23KT P6SM OVC025
     FM171800 17013G24KT P6SM -RA OVC020
     FM180000 18007KT 4SM -RA BR OVC008
     FM180300 20005KT 1 1/2SM -RA BR OVC003=

USA.gov is the U.S. government's official web portal to all federal, state and local government web resources and services.